UAL279 KFLL-KEWR
Flight info
| Callsign | UAL279 |
|---|---|
| Flight time | N/A |
| Altitude | 35000 |
| Route | FEALX2 ETECK GRUBR Y299 SEELO GARIC Q129 AARNN QUART PHLBO4 |
| Aircraft | B738/M-SDE2E3FGHIRWXY/LB1 |
Departure
| Time | 2026-05-03 22:32 |
|---|---|
| Airport | Fort Lauderdale Hollywood International Airport (KFLL) |
Arrival
| Time | N/A |
|---|---|
| Airport | Newark Liberty International Airport (KEWR) |
| Time | Latitude | Longitude | Altitude | Speed | Heading |
|---|---|---|---|---|---|
| 2026-05-03 21:18 | 26.07295 | -80.14127 | 11 ft | 0 kts | 98° |
| 2026-05-03 21:29 | 26.07296 | -80.14131 | 11 ft | 2 kts | 98° |
| 2026-05-03 21:30 | 26.07298 | -80.14147 | 11 ft | 2 kts | 98° |
| 2026-05-03 21:30 | 26.07300 | -80.14164 | 11 ft | 2 kts | 98° |
| 2026-05-03 21:30 | 26.07302 | -80.14177 | 11 ft | 0 kts | 98° |
| 2026-05-03 21:30 | 26.07302 | -80.14188 | 11 ft | 1 kts | 56° |
| 2026-05-03 21:31 | 26.07293 | -80.14195 | 11 ft | 0 kts | 6° |
| 2026-05-03 21:31 | 26.07296 | -80.14195 | 11 ft | 2 kts | 10° |
| 2026-05-03 21:31 | 26.07334 | -80.14192 | 11 ft | 5 kts | 1° |
| 2026-05-03 21:31 | 26.07352 | -80.14191 | 11 ft | 0 kts | 1° |
| 2026-05-03 21:33 | 26.07354 | -80.14191 | 11 ft | 1 kts | 0° |
| 2026-05-03 21:33 | 26.07415 | -80.14191 | 11 ft | 6 kts | 0° |
| 2026-05-03 21:33 | 26.07417 | -80.14191 | 11 ft | 0 kts | 1° |
| 2026-05-03 21:38 | 26.07418 | -80.14191 | 11 ft | 0 kts | 0° |
| 2026-05-03 21:38 | 26.07455 | -80.14196 | 11 ft | 12 kts | 344° |
| 2026-05-03 21:39 | 26.07486 | -80.14329 | 11 ft | 26 kts | 274° |
| 2026-05-03 21:39 | 26.07487 | -80.14558 | 11 ft | 29 kts | 271° |
| 2026-05-03 21:39 | 26.07489 | -80.14760 | 11 ft | 22 kts | 270° |
| 2026-05-03 21:39 | 26.07489 | -80.14899 | 11 ft | 14 kts | 270° |
| 2026-05-03 21:40 | 26.07489 | -80.14964 | 11 ft | 0 kts | 270° |
| 2026-05-03 21:40 | 26.07490 | -80.14969 | 11 ft | 1 kts | 270° |
| 2026-05-03 21:40 | 26.07490 | -80.14981 | 11 ft | 1 kts | 271° |
| 2026-05-03 21:41 | 26.07490 | -80.14996 | 11 ft | 2 kts | 271° |
| 2026-05-03 21:41 | 26.07490 | -80.15013 | 11 ft | 2 kts | 270° |
| 2026-05-03 21:41 | 26.07490 | -80.15031 | 11 ft | 2 kts | 270° |
| 2026-05-03 21:41 | 26.07490 | -80.15041 | 11 ft | 0 kts | 270° |
| 2026-05-03 21:45 | 26.07491 | -80.15084 | 11 ft | 13 kts | 270° |
| 2026-05-03 21:45 | 26.07491 | -80.15245 | 11 ft | 24 kts | 270° |
| 2026-05-03 21:45 | 26.07493 | -80.15406 | 11 ft | 17 kts | 270° |
| 2026-05-03 21:46 | 26.07492 | -80.15524 | 11 ft | 14 kts | 270° |
| 2026-05-03 21:46 | 26.07493 | -80.15630 | 11 ft | 12 kts | 270° |
| 2026-05-03 21:46 | 26.07494 | -80.15724 | 11 ft | 11 kts | 271° |
| 2026-05-03 21:46 | 26.07494 | -80.15807 | 11 ft | 10 kts | 269° |
| 2026-05-03 21:47 | 26.07494 | -80.15882 | 11 ft | 10 kts | 270° |
| 2026-05-03 21:47 | 26.07494 | -80.15975 | 11 ft | 10 kts | 271° |
| 2026-05-03 21:47 | 26.07495 | -80.16052 | 11 ft | 9 kts | 270° |
| 2026-05-03 21:47 | 26.07495 | -80.16106 | 11 ft | 0 kts | 270° |
| 2026-05-03 21:48 | 26.07495 | -80.16112 | 11 ft | 1 kts | 271° |
| 2026-05-03 21:48 | 26.07496 | -80.16129 | 11 ft | 4 kts | 271° |
| 2026-05-03 21:48 | 26.07496 | -80.16210 | 11 ft | 9 kts | 270° |
| 2026-05-03 21:48 | 26.07496 | -80.16248 | 11 ft | 2 kts | 271° |
| 2026-05-03 21:49 | 26.07496 | -80.16252 | 11 ft | 0 kts | 271° |
| 2026-05-03 21:51 | 26.07497 | -80.16280 | 11 ft | 6 kts | 271° |
| 2026-05-03 21:51 | 26.07497 | -80.16292 | 11 ft | 0 kts | 270° |
| 2026-05-03 21:52 | 26.07497 | -80.16303 | 11 ft | 0 kts | 270° |
| 2026-05-03 21:55 | 26.07497 | -80.16330 | 11 ft | 7 kts | 270° |
| 2026-05-03 21:55 | 26.07497 | -80.16371 | 11 ft | 0 kts | 270° |
| 2026-05-03 22:06 | 26.07497 | -80.16372 | 11 ft | 0 kts | 270° |
| 2026-05-03 22:06 | 26.07497 | -80.16406 | 11 ft | 9 kts | 271° |
| 2026-05-03 22:06 | 26.07498 | -80.16437 | 11 ft | 0 kts | 269° |
| 2026-05-03 22:08 | 26.07498 | -80.16438 | 11 ft | 0 kts | 269° |
| 2026-05-03 22:09 | 26.07498 | -80.16441 | 11 ft | 0 kts | 269° |
| 2026-05-03 22:09 | 26.07497 | -80.16461 | 11 ft | 7 kts | 270° |
| 2026-05-03 22:09 | 26.07497 | -80.16519 | 11 ft | 0 kts | 271° |
| 2026-05-03 22:10 | 26.07497 | -80.16520 | 11 ft | 0 kts | 271° |
| 2026-05-03 22:10 | 26.07498 | -80.16532 | 11 ft | 0 kts | 271° |
| 2026-05-03 22:17 | 26.07498 | -80.16534 | 11 ft | 0 kts | 271° |
| 2026-05-03 22:17 | 26.07498 | -80.16543 | 11 ft | 2 kts | 271° |
| 2026-05-03 22:17 | 26.07498 | -80.16572 | 11 ft | 0 kts | 270° |
| 2026-05-03 22:19 | 26.07498 | -80.16575 | 11 ft | 0 kts | 270° |
| 2026-05-03 22:19 | 26.07498 | -80.16579 | 11 ft | 1 kts | 270° |
| 2026-05-03 22:19 | 26.07499 | -80.16614 | 11 ft | 5 kts | 275° |
| 2026-05-03 22:19 | 26.07504 | -80.16630 | 11 ft | 0 kts | 307° |
| 2026-05-03 22:20 | 26.07506 | -80.16631 | 11 ft | 0 kts | 310° |
| 2026-05-03 22:20 | 26.07509 | -80.16636 | 11 ft | 1 kts | 317° |
| 2026-05-03 22:20 | 26.07512 | -80.16637 | 11 ft | 0 kts | 332° |
| 2026-05-03 22:21 | 26.07513 | -80.16638 | 11 ft | 0 kts | 332° |
| 2026-05-03 22:21 | 26.07515 | -80.16639 | 11 ft | 0 kts | 336° |
| 2026-05-03 22:22 | 26.07516 | -80.16640 | 11 ft | 0 kts | 338° |
| 2026-05-03 22:22 | 26.07523 | -80.16642 | 11 ft | 1 kts | 343° |
| 2026-05-03 22:22 | 26.07534 | -80.16644 | 11 ft | 2 kts | 356° |
| 2026-05-03 22:22 | 26.07548 | -80.16644 | 11 ft | 0 kts | 0° |
| 2026-05-03 22:23 | 26.07550 | -80.16644 | 11 ft | 0 kts | 0° |
| 2026-05-03 22:23 | 26.07582 | -80.16644 | 11 ft | 8 kts | 1° |
| 2026-05-03 22:23 | 26.07599 | -80.16644 | 11 ft | 0 kts | 1° |
| 2026-05-03 22:25 | 26.07600 | -80.16644 | 11 ft | 0 kts | 1° |
| 2026-05-03 22:25 | 26.07605 | -80.16644 | 11 ft | 0 kts | 1° |
| 2026-05-03 22:29 | 26.07608 | -80.16644 | 11 ft | 2 kts | 2° |
| 2026-05-03 22:30 | 26.07677 | -80.16624 | 11 ft | 13 kts | 49° |
| 2026-05-03 22:30 | 26.07695 | -80.16544 | 11 ft | 3 kts | 89° |
| 2026-05-03 22:30 | 26.07695 | -80.16539 | 11 ft | 0 kts | 89° |
| 2026-05-03 22:30 | 26.07695 | -80.16530 | 11 ft | 0 kts | 89° |
| 2026-05-03 22:31 | 26.07695 | -80.16528 | 11 ft | 1 kts | 89° |
| 2026-05-03 22:31 | 26.07695 | -80.16280 | 11 ft | 73 kts | 91° |
| 2026-05-03 22:31 | 26.07688 | -80.15421 | 11 ft | 147 kts | 90° |
| 2026-05-03 22:31 | 26.07680 | -80.14097 | 254 ft | 188 kts | 89° |
| 2026-05-03 22:32 | 26.07694 | -80.12630 | 1114 ft | 197 kts | 86° |
| 2026-05-03 22:32 | 26.07734 | -80.11063 | 1857 ft | 212 kts | 86° |
| 2026-05-03 22:32 | 26.07755 | -80.09364 | 2472 ft | 228 kts | 87° |
| 2026-05-03 22:32 | 26.07771 | -80.07545 | 3045 ft | 246 kts | 88° |
| 2026-05-03 22:33 | 26.07793 | -80.05568 | 3636 ft | 264 kts | 89° |
| 2026-05-03 22:33 | 26.07816 | -80.03481 | 4235 ft | 281 kts | 89° |
| 2026-05-03 22:33 | 26.07959 | -80.01288 | 5051 ft | 287 kts | 78° |
| 2026-05-03 22:33 | 26.08678 | -79.99258 | 5941 ft | 289 kts | 57° |
| 2026-05-03 22:34 | 26.09853 | -79.97454 | 6757 ft | 294 kts | 51° |
| 2026-05-03 22:34 | 26.11122 | -79.95622 | 7541 ft | 300 kts | 51° |
| 2026-05-03 22:34 | 26.12376 | -79.93762 | 8366 ft | 304 kts | 52° |
| 2026-05-03 22:34 | 26.13642 | -79.91846 | 9134 ft | 310 kts | 52° |
| 2026-05-03 22:35 | 26.14918 | -79.89901 | 9890 ft | 315 kts | 52° |
| 2026-05-03 22:35 | 26.16200 | -79.87945 | 10493 ft | 326 kts | 52° |
| 2026-05-03 22:35 | 26.17571 | -79.85851 | 10926 ft | 342 kts | 52° |
| 2026-05-03 22:35 | 26.19012 | -79.83646 | 11343 ft | 359 kts | 53° |
| 2026-05-03 22:36 | 26.20513 | -79.81350 | 11772 ft | 374 kts | 52° |
| 2026-05-03 22:36 | 26.22054 | -79.78990 | 12157 ft | 390 kts | 53° |
| 2026-05-03 22:36 | 26.23680 | -79.76498 | 12492 ft | 406 kts | 53° |
| 2026-05-03 22:36 | 26.25376 | -79.73898 | 12814 ft | 422 kts | 53° |
| 2026-05-03 22:37 | 26.27145 | -79.71184 | 12952 ft | 437 kts | 53° |
| 2026-05-03 22:37 | 26.28944 | -79.68471 | 12964 ft | 435 kts | 50° |
| 2026-05-03 22:37 | 26.30894 | -79.65943 | 12962 ft | 428 kts | 46° |
| 2026-05-03 22:37 | 26.32931 | -79.63562 | 12967 ft | 425 kts | 44° |
| 2026-05-03 22:38 | 26.35025 | -79.61190 | 12997 ft | 430 kts | 43° |
| 2026-05-03 22:38 | 26.37152 | -79.58787 | 13663 ft | 434 kts | 44° |
| 2026-05-03 22:38 | 26.39247 | -79.56405 | 14342 ft | 437 kts | 44° |
| 2026-05-03 22:38 | 26.41394 | -79.53952 | 14966 ft | 441 kts | 44° |
| 2026-05-03 22:39 | 26.43528 | -79.51504 | 15548 ft | 446 kts | 44° |
| 2026-05-03 22:39 | 26.45706 | -79.48999 | 16155 ft | 450 kts | 43° |
| 2026-05-03 22:39 | 26.47892 | -79.46481 | 16728 ft | 455 kts | 44° |
| 2026-05-03 22:39 | 26.50085 | -79.43954 | 17243 ft | 460 kts | 43° |
| 2026-05-03 22:40 | 26.52350 | -79.41377 | 17815 ft | 464 kts | 42° |
| 2026-05-03 22:40 | 26.54681 | -79.38900 | 18315 ft | 467 kts | 38° |
| 2026-05-03 22:40 | 26.57247 | -79.36661 | 18859 ft | 468 kts | 31° |
| 2026-05-03 22:40 | 26.59975 | -79.34652 | 19267 ft | 473 kts | 28° |
| 2026-05-03 22:41 | 26.62801 | -79.32717 | 19830 ft | 475 kts | 27° |
| 2026-05-03 22:41 | 26.65627 | -79.30823 | 20250 ft | 481 kts | 27° |
| 2026-05-03 22:41 | 26.68529 | -79.28881 | 20733 ft | 485 kts | 27° |
| 2026-05-03 22:41 | 26.71419 | -79.26939 | 21160 ft | 490 kts | 27° |
| 2026-05-03 22:42 | 26.74337 | -79.24967 | 21705 ft | 491 kts | 27° |
| 2026-05-03 22:42 | 26.77306 | -79.22955 | 22088 ft | 497 kts | 27° |
| 2026-05-03 22:42 | 26.80273 | -79.20940 | 22535 ft | 500 kts | 27° |
| 2026-05-03 22:42 | 26.83257 | -79.18909 | 22931 ft | 505 kts | 27° |
| 2026-05-03 22:43 | 26.86236 | -79.16878 | 23333 ft | 509 kts | 27° |
| 2026-05-03 22:43 | 26.89262 | -79.14812 | 23822 ft | 511 kts | 27° |
| 2026-05-03 22:43 | 26.92334 | -79.12711 | 24172 ft | 516 kts | 27° |
| 2026-05-03 22:43 | 26.95389 | -79.10622 | 24619 ft | 519 kts | 27° |
| 2026-05-03 22:44 | 26.98488 | -79.08499 | 24973 ft | 523 kts | 27° |
| 2026-05-03 22:44 | 27.01589 | -79.06374 | 25369 ft | 526 kts | 27° |
| 2026-05-03 22:44 | 27.04719 | -79.04227 | 25800 ft | 528 kts | 27° |
| 2026-05-03 22:44 | 27.07870 | -79.02065 | 26291 ft | 529 kts | 27° |
| 2026-05-03 22:45 | 27.10991 | -78.99919 | 26930 ft | 526 kts | 27° |
| 2026-05-03 22:45 | 27.14106 | -78.97775 | 27509 ft | 523 kts | 27° |
| 2026-05-03 22:45 | 27.17228 | -78.95627 | 27931 ft | 525 kts | 27° |
| 2026-05-03 22:45 | 27.20314 | -78.93507 | 28308 ft | 527 kts | 27° |
| 2026-05-03 22:46 | 27.23471 | -78.91334 | 28764 ft | 528 kts | 27° |
| 2026-05-03 22:46 | 27.26577 | -78.89195 | 29253 ft | 527 kts | 27° |
| 2026-05-03 22:46 | 27.29692 | -78.87047 | 29671 ft | 527 kts | 27° |
| 2026-05-03 22:46 | 27.32829 | -78.84885 | 30117 ft | 527 kts | 27° |
| 2026-05-03 22:47 | 27.36000 | -78.82822 | 30470 ft | 527 kts | 24° |
| 2026-05-03 22:47 | 27.39311 | -78.80994 | 30792 ft | 524 kts | 17° |
| 2026-05-03 22:47 | 27.42751 | -78.79777 | 31127 ft | 516 kts | 6° |
| 2026-05-03 22:47 | 27.46244 | -78.79000 | 31549 ft | 511 kts | 2° |
| 2026-05-03 22:48 | 27.49749 | -78.78386 | 31963 ft | 509 kts | 360° |
| 2026-05-03 22:48 | 27.53270 | -78.77837 | 32273 ft | 510 kts | 359° |
| 2026-05-03 22:48 | 27.56807 | -78.77314 | 32531 ft | 512 kts | 359° |
| 2026-05-03 22:48 | 27.60312 | -78.76799 | 32959 ft | 510 kts | 358° |
| 2026-05-03 22:49 | 27.63818 | -78.76281 | 33577 ft | 505 kts | 358° |
| 2026-05-03 22:49 | 27.67282 | -78.75767 | 34134 ft | 502 kts | 358° |
| 2026-05-03 22:49 | 27.70747 | -78.75259 | 34469 ft | 502 kts | 358° |
| 2026-05-03 22:49 | 27.74242 | -78.74749 | 34871 ft | 502 kts | 358° |
| 2026-05-03 22:50 | 27.77727 | -78.74241 | 35022 ft | 505 kts | 357° |
| 2026-05-03 22:50 | 27.84790 | -78.73205 | 35027 ft | 502 kts | 357° |
| 2026-05-03 22:51 | 27.91701 | -78.72183 | 35026 ft | 501 kts | 357° |
| 2026-05-03 22:51 | 27.98661 | -78.71162 | 35028 ft | 501 kts | 356° |
| 2026-05-03 22:52 | 28.05605 | -78.70144 | 35029 ft | 505 kts | 357° |
| 2026-05-03 22:52 | 28.12583 | -78.69112 | 35029 ft | 502 kts | 356° |
| 2026-05-03 22:53 | 28.19565 | -78.68079 | 35036 ft | 505 kts | 357° |
| 2026-05-03 22:53 | 28.26518 | -78.67048 | 35035 ft | 502 kts | 356° |
| 2026-05-03 22:54 | 28.33427 | -78.66013 | 35040 ft | 502 kts | 356° |
| 2026-05-03 22:54 | 28.40422 | -78.64986 | 35043 ft | 509 kts | 356° |
| 2026-05-03 22:55 | 28.47414 | -78.63939 | 35051 ft | 501 kts | 356° |
| 2026-05-03 22:55 | 28.54347 | -78.62904 | 35052 ft | 503 kts | 356° |
| 2026-05-03 22:56 | 28.61344 | -78.61868 | 35052 ft | 506 kts | 356° |
| 2026-05-03 22:56 | 28.68388 | -78.60822 | 35058 ft | 509 kts | 356° |
| 2026-05-03 22:57 | 28.75402 | -78.59766 | 35059 ft | 505 kts | 356° |
| 2026-05-03 22:57 | 28.82391 | -78.58721 | 35060 ft | 509 kts | 356° |
| 2026-05-03 22:58 | 28.89478 | -78.57661 | 35065 ft | 510 kts | 356° |
| 2026-05-03 22:58 | 28.96447 | -78.56605 | 35067 ft | 504 kts | 356° |
| 2026-05-03 22:59 | 29.03444 | -78.55556 | 35074 ft | 509 kts | 355° |
| 2026-05-03 22:59 | 29.10436 | -78.54506 | 35078 ft | 504 kts | 356° |
| 2026-05-03 23:00 | 29.17438 | -78.53451 | 35083 ft | 507 kts | 356° |
| 2026-05-03 23:00 | 29.24425 | -78.52394 | 35085 ft | 506 kts | 355° |
| 2026-05-03 23:01 | 29.31403 | -78.51337 | 35075 ft | 506 kts | 356° |
| 2026-05-03 23:01 | 29.38455 | -78.50272 | 35082 ft | 508 kts | 356° |
| 2026-05-03 23:02 | 29.45516 | -78.49300 | 35085 ft | 505 kts | 353° |
| 2026-05-03 23:02 | 29.48972 | -78.49129 | 35084 ft | 492 kts | 347° |
| 2026-05-03 23:02 | 29.52398 | -78.49262 | 35086 ft | 485 kts | 344° |
| 2026-05-03 23:03 | 29.59075 | -78.49873 | 35087 ft | 482 kts | 341° |
| 2026-05-03 23:03 | 29.65794 | -78.50592 | 35086 ft | 485 kts | 341° |
| 2026-05-03 23:04 | 29.72534 | -78.51315 | 35090 ft | 486 kts | 341° |
| 2026-05-03 23:04 | 29.79261 | -78.52030 | 35094 ft | 481 kts | 342° |
| 2026-05-03 23:05 | 29.85941 | -78.52753 | 35093 ft | 483 kts | 341° |
| 2026-05-03 23:05 | 29.92646 | -78.53482 | 35095 ft | 482 kts | 341° |
| 2026-05-03 23:06 | 29.99336 | -78.54207 | 35087 ft | 481 kts | 341° |
| 2026-05-03 23:06 | 30.06007 | -78.54931 | 35097 ft | 479 kts | 341° |
| 2026-05-03 23:07 | 30.12695 | -78.55585 | 35101 ft | 488 kts | 345° |
| 2026-05-03 23:07 | 30.16141 | -78.55596 | 35099 ft | 499 kts | 350° |
| 2026-05-03 23:07 | 30.19669 | -78.55284 | 35097 ft | 505 kts | 354° |
| 2026-05-03 23:08 | 30.26604 | -78.54309 | 35104 ft | 501 kts | 356° |
| 2026-05-03 23:08 | 30.33573 | -78.53281 | 35104 ft | 506 kts | 355° |
| 2026-05-03 23:09 | 30.40587 | -78.52267 | 35107 ft | 503 kts | 355° |
| 2026-05-03 23:09 | 30.47526 | -78.51205 | 35108 ft | 503 kts | 356° |
| 2026-05-03 23:10 | 30.54454 | -78.50065 | 35111 ft | 508 kts | 356° |
| 2026-05-03 23:10 | 30.61478 | -78.48907 | 35112 ft | 503 kts | 357° |
| 2026-05-03 23:11 | 30.68421 | -78.47774 | 35109 ft | 507 kts | 356° |
| 2026-05-03 23:11 | 30.75435 | -78.46632 | 35123 ft | 502 kts | 356° |
| 2026-05-03 23:12 | 30.82322 | -78.45503 | 35125 ft | 502 kts | 357° |
| 2026-05-03 23:12 | 30.89257 | -78.44380 | 35116 ft | 503 kts | 356° |
| 2026-05-03 23:13 | 30.96199 | -78.43246 | 35130 ft | 502 kts | 357° |
| 2026-05-03 23:13 | 31.03110 | -78.42118 | 35123 ft | 503 kts | 357° |
| 2026-05-03 23:14 | 31.10040 | -78.40979 | 35125 ft | 501 kts | 356° |
| 2026-05-03 23:14 | 31.16971 | -78.39839 | 35130 ft | 501 kts | 356° |
| 2026-05-03 23:15 | 31.23875 | -78.38713 | 35126 ft | 502 kts | 357° |
| 2026-05-03 23:15 | 31.30820 | -78.37572 | 35133 ft | 502 kts | 357° |
| 2026-05-03 23:16 | 31.37730 | -78.36431 | 35132 ft | 501 kts | 357° |
| 2026-05-03 23:16 | 31.44648 | -78.35295 | 35132 ft | 503 kts | 357° |
| 2026-05-03 23:17 | 31.51618 | -78.34139 | 35131 ft | 502 kts | 358° |
| 2026-05-03 23:17 | 31.58454 | -78.32998 | 35129 ft | 496 kts | 357° |
| 2026-05-03 23:18 | 31.65369 | -78.31861 | 35136 ft | 504 kts | 357° |
| 2026-05-03 23:18 | 31.72316 | -78.30714 | 35137 ft | 505 kts | 358° |
| 2026-05-03 23:19 | 31.79250 | -78.29549 | 35133 ft | 497 kts | 358° |
| 2026-05-03 23:19 | 31.86101 | -78.28412 | 35135 ft | 501 kts | 357° |